Time;durP1;ratioP1;P1;durP2;ratioP2;P2;SDS_P1;SDS_P2;PMS_P1;PMS_P2;Temp;Humidity;BMP_temperature;BMP_pressure;BME280_temperature;BME280_humidity;BME280_pressure;Samples;Min_cycle;Max_cycle;Signal;HPM_P1;HPM_P2
2023/12/22 00:00:37;;;;;;;6.00;2.25;;;;;;;;;;4982201;28;20079;-65
2023/12/22 00:03:03;;;;;;;7.13;1.77;;;;;;;;;;4980683;28;20036;-65
2023/12/22 00:05:28;;;;;;;10.23;1.85;;;;;;;;;;4983354;28;20040;-65
2023/12/22 00:07:53;;;;;;;5.87;1.70;;;;;;;;;;4987959;28;20057;-64
2023/12/22 00:10:18;;;;;;;16.55;1.83;;;;;;;;;;4991155;28;20276;-64
2023/12/22 00:12:44;;;;;;;7.78;1.85;;;;;;;;;;4979954;28;20037;-65
2023/12/22 00:15:09;;;;;;;5.07;1.33;;;;;;;;;;4981836;28;20531;-64
2023/12/22 00:17:34;;;;;;;6.65;2.13;;;;;;;;;;4980330;28;20040;-64
2023/12/22 00:20:02;;;;;;;7.60;1.90;;;;;;;;;;4981007;28;20869;-64
2023/12/22 00:22:28;;;;;;;7.60;1.67;;;;;;;;;;4980496;28;20332;-64
2023/12/22 00:24:53;;;;;;;7.93;1.63;;;;;;;;;;4989682;28;20877;-64
2023/12/22 00:27:18;;;;;;;6.22;1.70;;;;;;;;;;4985614;28;20137;-65
2023/12/22 00:29:43;;;;;;;8.63;1.67;;;;;;;;;;4993366;28;20034;-65
2023/12/22 00:32:11;;;;;;;8.00;1.50;;;;;;;;;;4994584;28;20410;-64
2023/12/22 00:34:37;;;;;;;6.60;1.50;;;;;;;;;;4982644;28;20037;-64
2023/12/22 00:37:04;;;;;;;8.30;1.70;;;;;;;;;;4981792;28;20062;-64
2023/12/22 00:39:29;;;;;;;5.20;2.13;;;;;;;;;;4983436;28;20045;-65
2023/12/22 00:41:54;;;;;;;5.73;1.53;;;;;;;;;;4992354;28;20017;-65
2023/12/22 00:44:20;;;;;;;8.98;2.03;;;;;;;;;;4989391;28;20312;-64
2023/12/22 00:46:45;;;;;;;6.87;1.73;;;;;;;;;;4988499;28;20034;-65
2023/12/22 00:49:10;;;;;;;13.05;2.00;;;;;;;;;;4981334;28;20367;-65
2023/12/22 00:51:35;;;;;;;9.30;1.58;;;;;;;;;;4988006;28;20916;-65
2023/12/22 00:54:01;;;;;;;10.13;2.03;;;;;;;;;;4986736;28;20164;-65
2023/12/22 00:56:26;;;;;;;12.15;2.35;;;;;;;;;;4984197;28;20323;-65
2023/12/22 00:58:51;;;;;;;4.53;1.50;;;;;;;;;;4991835;28;20464;-64
2023/12/22 01:01:16;;;;;;;9.73;2.25;;;;;;;;;;4980756;28;21167;-65
2023/12/22 01:03:42;;;;;;;8.25;1.98;;;;;;;;;;4982253;28;20257;-65
2023/12/22 01:06:07;;;;;;;11.03;1.73;;;;;;;;;;4978713;28;20037;-65
2023/12/22 01:08:32;;;;;;;8.82;2.15;;;;;;;;;;4991250;28;20403;-65
2023/12/22 01:10:57;;;;;;;8.70;1.98;;;;;;;;;;4986144;28;20124;-65
2023/12/22 01:13:23;;;;;;;5.63;1.13;;;;;;;;;;4988799;28;20034;-64
2023/12/22 01:15:48;;;;;;;7.10;1.93;;;;;;;;;;4980557;28;20281;-65
2023/12/22 01:18:13;;;;;;;7.57;1.92;;;;;;;;;;4986443;28;20355;-64
2023/12/22 01:20:38;;;;;;;4.95;1.73;;;;;;;;;;4979915;28;20132;-65
2023/12/22 01:23:04;;;;;;;3.95;1.25;;;;;;;;;;4978646;28;20073;-65
2023/12/22 01:25:29;;;;;;;6.03;1.20;;;;;;;;;;4981490;28;20080;-65
2023/12/22 01:27:54;;;;;;;8.13;1.77;;;;;;;;;;4980211;28;20273;-65
2023/12/22 01:30:19;;;;;;;8.38;2.05;;;;;;;;;;4986528;28;20029;-65
2023/12/22 01:32:45;;;;;;;5.65;1.85;;;;;;;;;;4989091;28;20038;-65
2023/12/22 01:35:10;;;;;;;9.10;1.70;;;;;;;;;;4980048;28;20045;-65
2023/12/22 01:37:36;;;;;;;9.45;2.33;;;;;;;;;;4979573;28;20272;-65
2023/12/22 01:40:02;;;;;;;8.93;1.88;;;;;;;;;;4981107;28;20943;-65
2023/12/22 01:42:28;;;;;;;5.65;1.73;;;;;;;;;;4988444;28;20049;-65
2023/12/22 01:44:53;;;;;;;11.55;2.20;;;;;;;;;;4983237;28;20028;-65
2023/12/22 01:47:18;;;;;;;7.87;1.30;;;;;;;;;;4998057;28;20044;-66
2023/12/22 01:49:43;;;;;;;6.90;1.90;;;;;;;;;;4984445;28;20273;-65
2023/12/22 01:52:09;;;;;;;6.65;1.30;;;;;;;;;;4979997;28;20157;-65
2023/12/22 01:54:34;;;;;;;10.27;1.40;;;;;;;;;;4987423;28;20037;-65
2023/12/22 01:57:00;;;;;;;5.20;1.23;;;;;;;;;;4980999;28;20018;-65
2023/12/22 01:59:25;;;;;;;6.95;1.30;;;;;;;;;;4980113;28;20900;-65
2023/12/22 02:01:51;;;;;;;8.18;2.05;;;;;;;;;;4977387;28;20037;-65
2023/12/22 02:04:17;;;;;;;7.40;2.00;;;;;;;;;;4981109;28;20123;-64
2023/12/22 02:06:42;;;;;;;7.32;1.73;;;;;;;;;;4982407;28;21363;-64
2023/12/22 02:09:08;;;;;;;6.80;1.85;;;;;;;;;;4987872;28;20850;-65
2023/12/22 02:11:33;;;;;;;7.10;2.10;;;;;;;;;;4991262;28;20128;-65
2023/12/22 02:13:58;;;;;;;7.05;1.67;;;;;;;;;;4978834;28;20026;-65
2023/12/22 02:16:39;;;;;;;4.75;1.73;;;;;;;;;;4978524;28;20072;-65
2023/12/22 02:19:11;;;;;;;9.60;2.55;;;;;;;;;;4978710;28;20028;-65
2023/12/22 02:21:38;;;;;;;8.00;2.13;;;;;;;;;;4981130;28;20797;-65
2023/12/22 02:24:03;;;;;;;6.55;1.95;;;;;;;;;;4979238;28;20080;-64
2023/12/22 02:26:32;;;;;;;4.35;1.58;;;;;;;;;;4980705;28;20440;-65
2023/12/22 02:28:58;;;;;;;7.72;2.17;;;;;;;;;;4980201;28;20810;-64
2023/12/22 02:31:31;;;;;;;6.78;1.77;;;;;;;;;;4986385;28;20038;-64
2023/12/22 02:33:58;;;;;;;13.23;1.97;;;;;;;;;;4994179;28;20025;-65
2023/12/22 02:36:25;;;;;;;8.43;1.80;;;;;;;;;;4986858;28;20280;-65
2023/12/22 02:38:52;;;;;;;10.50;2.08;;;;;;;;;;4973890;28;20191;-64
2023/12/22 02:41:17;;;;;;;5.97;1.50;;;;;;;;;;4988516;28;20087;-65
2023/12/22 02:43:43;;;;;;;6.32;1.80;;;;;;;;;;4979991;28;20033;-65
2023/12/22 02:46:15;;;;;;;13.80;1.83;;;;;;;;;;4980688;28;20041;-66
2023/12/22 02:48:40;;;;;;;5.50;1.83;;;;;;;;;;4981191;28;20041;-66
2023/12/22 02:51:05;;;;;;;4.07;1.00;;;;;;;;;;4978572;28;20033;-66
2023/12/22 02:53:30;;;;;;;7.60;1.25;;;;;;;;;;4977297;28;20767;-66
2023/12/22 02:55:56;;;;;;;5.80;1.27;;;;;;;;;;4980687;28;20034;-65
2023/12/22 02:58:21;;;;;;;5.93;1.63;;;;;;;;;;4990869;28;20377;-65
2023/12/22 03:00:46;;;;;;;10.50;1.63;;;;;;;;;;4980417;28;20280;-65
2023/12/22 03:03:13;;;;;;;5.82;1.48;;;;;;;;;;4979610;28;20342;-65
2023/12/22 03:05:38;;;;;;;9.13;1.63;;;;;;;;;;4981501;28;20291;-65
2023/12/22 03:08:03;;;;;;;7.82;1.20;;;;;;;;;;4977566;28;20906;-65
2023/12/22 03:10:29;;;;;;;5.13;1.85;;;;;;;;;;4976441;28;20809;-65
2023/12/22 03:12:54;;;;;;;3.38;0.98;;;;;;;;;;4977918;28;20083;-65
2023/12/22 03:15:19;;;;;;;9.67;1.87;;;;;;;;;;4980332;28;20027;-65
2023/12/22 03:17:44;;;;;;;5.07;1.23;;;;;;;;;;4981590;28;20308;-65
2023/12/22 03:20:10;;;;;;;9.57;2.13;;;;;;;;;;4981344;28;20072;-65
2023/12/22 03:22:35;;;;;;;7.85;1.80;;;;;;;;;;4984383;28;20034;-65
2023/12/22 03:25:00;;;;;;;10.05;2.03;;;;;;;;;;4981915;28;20800;-65
2023/12/22 03:27:25;;;;;;;4.90;1.65;;;;;;;;;;4983150;28;20474;-65
2023/12/22 03:29:51;;;;;;;7.20;1.38;;;;;;;;;;4987281;28;20034;-65
2023/12/22 03:32:16;;;;;;;5.32;2.00;;;;;;;;;;4986512;28;20455;-65
2023/12/22 03:34:41;;;;;;;11.80;2.47;;;;;;;;;;4993631;28;20032;-64
2023/12/22 03:37:06;;;;;;;12.87;1.60;;;;;;;;;;4995917;28;20053;-64
2023/12/22 03:39:32;;;;;;;7.97;2.37;;;;;;;;;;4990626;28;20287;-64
2023/12/22 03:41:57;;;;;;;8.05;2.33;;;;;;;;;;4984526;28;20291;-64
2023/12/22 03:44:22;;;;;;;15.10;2.90;;;;;;;;;;4982291;28;20044;-65
2023/12/22 03:46:47;;;;;;;14.13;2.63;;;;;;;;;;4982785;28;20300;-65
2023/12/22 03:49:12;;;;;;;10.30;2.17;;;;;;;;;;4986229;28;20998;-64
2023/12/22 03:51:38;;;;;;;10.98;2.20;;;;;;;;;;4990034;28;20029;-65
2023/12/22 03:54:03;;;;;;;6.57;2.53;;;;;;;;;;4985616;28;20044;-65
2023/12/22 03:56:28;;;;;;;13.82;2.35;;;;;;;;;;4982928;28;20840;-65
2023/12/22 03:58:55;;;;;;;10.63;2.30;;;;;;;;;;4983265;28;20037;-65
2023/12/22 04:01:20;;;;;;;9.27;2.88;;;;;;;;;;4989618;28;20276;-65
2023/12/22 04:03:45;;;;;;;6.60;2.20;;;;;;;;;;4981247;28;20029;-65
2023/12/22 04:06:11;;;;;;;11.75;2.03;;;;;;;;;;4984419;28;20292;-65
2023/12/22 04:08:36;;;;;;;10.43;2.58;;;;;;;;;;4985160;28;20092;-64
2023/12/22 04:11:01;;;;;;;12.47;3.17;;;;;;;;;;4981498;28;20030;-64
2023/12/22 04:13:26;;;;;;;6.18;1.77;;;;;;;;;;4992715;28;20285;-66
2023/12/22 04:15:51;;;;;;;13.20;2.43;;;;;;;;;;4982088;28;20848;-65
2023/12/22 04:18:17;;;;;;;9.93;2.30;;;;;;;;;;4985486;28;21255;-64
2023/12/22 04:20:42;;;;;;;4.60;1.70;;;;;;;;;;4984829;28;21122;-65
2023/12/22 04:23:07;;;;;;;8.20;2.00;;;;;;;;;;4992650;28;20029;-64
2023/12/22 04:25:32;;;;;;;10.13;2.53;;;;;;;;;;4990676;28;20335;-64
2023/12/22 04:27:57;;;;;;;8.60;1.87;;;;;;;;;;4984708;28;20053;-65
2023/12/22 04:30:23;;;;;;;12.57;2.43;;;;;;;;;;4981266;28;20280;-65
2023/12/22 04:32:48;;;;;;;15.57;2.42;;;;;;;;;;4980298;28;20273;-65
2023/12/22 04:35:13;;;;;;;13.30;2.80;;;;;;;;;;4983872;28;20033;-65
2023/12/22 04:37:38;;;;;;;7.55;2.15;;;;;;;;;;4987972;28;20277;-65
2023/12/22 04:40:04;;;;;;;15.43;2.80;;;;;;;;;;4988582;28;20029;-64
2023/12/22 04:42:29;;;;;;;5.15;1.65;;;;;;;;;;4992928;28;20308;-64
2023/12/22 04:44:55;;;;;;;6.63;1.67;;;;;;;;;;4984283;28;20136;-65
2023/12/22 04:47:20;;;;;;;9.05;1.95;;;;;;;;;;4982385;28;20042;-64
2023/12/22 04:49:45;;;;;;;6.78;1.50;;;;;;;;;;4981220;28;20037;-64
2023/12/22 04:52:11;;;;;;;9.52;1.55;;;;;;;;;;4984113;28;20057;-65
2023/12/22 04:54:36;;;;;;;10.27;1.95;;;;;;;;;;4985328;28;20061;-65
2023/12/22 04:57:02;;;;;;;7.53;2.08;;;;;;;;;;4989553;28;20141;-63
2023/12/22 04:59:27;;;;;;;10.13;1.75;;;;;;;;;;4981885;28;20484;-65
2023/12/22 05:01:52;;;;;;;11.30;2.35;;;;;;;;;;4988443;28;20030;-64
2023/12/22 05:04:18;;;;;;;3.87;1.60;;;;;;;;;;4982619;28;20037;-65
2023/12/22 05:06:43;;;;;;;6.30;2.08;;;;;;;;;;4987701;28;20328;-65
2023/12/22 05:09:08;;;;;;;8.07;1.98;;;;;;;;;;4983910;28;20029;-65
2023/12/22 05:11:34;;;;;;;13.52;2.60;;;;;;;;;;4983372;28;20742;-65
2023/12/22 05:13:59;;;;;;;7.03;2.17;;;;;;;;;;4982861;28;20021;-66
2023/12/22 05:16:25;;;;;;;6.93;1.77;;;;;;;;;;4982178;28;20034;-65
2023/12/22 05:18:50;;;;;;;15.60;2.67;;;;;;;;;;4982168;28;20268;-65
2023/12/22 05:21:15;;;;;;;5.97;2.20;;;;;;;;;;4982609;28;21408;-65
2023/12/22 05:23:40;;;;;;;11.10;2.67;;;;;;;;;;4992257;28;20601;-66
2023/12/22 05:26:06;;;;;;;11.43;2.97;;;;;;;;;;4991350;28;20044;-65
2023/12/22 05:28:32;;;;;;;15.07;2.97;;;;;;;;;;4982419;28;20284;-65
2023/12/22 05:30:57;;;;;;;9.88;2.83;;;;;;;;;;4985047;28;20394;-65
2023/12/22 05:33:22;;;;;;;8.55;2.42;;;;;;;;;;4984033;28;20497;-65
2023/12/22 05:35:47;;;;;;;9.90;2.83;;;;;;;;;;4982400;28;20018;-65
2023/12/22 05:38:13;;;;;;;9.93;2.72;;;;;;;;;;4980624;28;20392;-65
2023/12/22 05:40:38;;;;;;;7.90;2.33;;;;;;;;;;4980156;28;20032;-65
2023/12/22 05:43:03;;;;;;;11.30;2.93;;;;;;;;;;4982205;28;20904;-65
2023/12/22 05:45:29;;;;;;;12.00;2.83;;;;;;;;;;4984107;28;20924;-65
2023/12/22 05:47:54;;;;;;;14.98;4.40;;;;;;;;;;4983747;28;20048;-65
2023/12/22 05:50:19;;;;;;;9.87;3.17;;;;;;;;;;4982298;28;20971;-65
2023/12/22 05:52:45;;;;;;;12.32;3.45;;;;;;;;;;4986278;28;20276;-65
2023/12/22 05:55:10;;;;;;;12.23;3.17;;;;;;;;;;4985519;28;20936;-66
2023/12/22 05:57:35;;;;;;;13.13;3.20;;;;;;;;;;4983098;28;20231;-65
2023/12/22 06:00:01;;;;;;;12.00;2.77;;;;;;;;;;4983164;28;20030;-65
2023/12/22 06:02:26;;;;;;;14.00;3.17;;;;;;;;;;4984290;28;20318;-65
2023/12/22 06:04:51;;;;;;;16.70;3.13;;;;;;;;;;4983323;28;20800;-65
2023/12/22 06:07:16;;;;;;;13.37;3.33;;;;;;;;;;4992460;28;20343;-64
2023/12/22 06:09:42;;;;;;;14.98;3.00;;;;;;;;;;4985108;28;20276;-65
2023/12/22 06:12:07;;;;;;;9.88;3.10;;;;;;;;;;4984686;28;20021;-66
2023/12/22 06:14:34;;;;;;;14.57;4.72;;;;;;;;;;4983023;28;20053;-66
2023/12/22 06:17:00;;;;;;;15.65;3.45;;;;;;;;;;4981166;28;20030;-65
2023/12/22 06:19:28;;;;;;;11.93;4.00;;;;;;;;;;4980596;28;21049;-66
2023/12/22 06:21:53;;;;;;;16.63;3.67;;;;;;;;;;4983415;28;20026;-66
2023/12/22 06:24:18;;;;;;;15.10;2.95;;;;;;;;;;4981368;28;20041;-66
2023/12/22 06:26:44;;;;;;;13.70;3.58;;;;;;;;;;4980400;28;20037;-66
2023/12/22 06:29:09;;;;;;;17.60;5.30;;;;;;;;;;4982127;28;20132;-66
2023/12/22 06:31:34;;;;;;;16.88;4.47;;;;;;;;;;4992937;28;20299;-66
2023/12/22 06:34:02;;;;;;;12.17;4.53;;;;;;;;;;4986045;28;20034;-66
2023/12/22 06:36:27;;;;;;;11.80;3.03;;;;;;;;;;5000194;28;20268;-65
2023/12/22 06:38:53;;;;;;;14.45;3.88;;;;;;;;;;4990876;28;20030;-65
2023/12/22 06:41:22;;;;;;;15.57;3.53;;;;;;;;;;4986824;28;20030;-65
2023/12/22 06:43:47;;;;;;;13.95;4.03;;;;;;;;;;4987314;28;20045;-65
2023/12/22 06:46:16;;;;;;;12.80;2.92;;;;;;;;;;4980653;28;20030;-65
2023/12/22 06:48:41;;;;;;;10.80;3.22;;;;;;;;;;4989752;28;20132;-65
2023/12/22 06:51:07;;;;;;;18.40;4.18;;;;;;;;;;4983088;28;20087;-65
2023/12/22 06:53:32;;;;;;;14.77;3.27;;;;;;;;;;4995464;28;20106;-65
2023/12/22 06:55:57;;;;;;;15.30;3.70;;;;;;;;;;4986685;28;20272;-65
2023/12/22 06:58:25;;;;;;;7.53;2.92;;;;;;;;;;4992765;28;20307;-65
2023/12/22 07:00:50;;;;;;;12.43;3.45;;;;;;;;;;4984177;28;20029;-66
2023/12/22 07:03:17;;;;;;;17.93;5.00;;;;;;;;;;4984040;28;20896;-66
2023/12/22 07:05:42;;;;;;;14.32;4.05;;;;;;;;;;4987508;28;20284;-65
2023/12/22 07:08:08;;;;;;;15.85;3.67;;;;;;;;;;4983979;28;20083;-65
2023/12/22 07:10:33;;;;;;;13.70;3.30;;;;;;;;;;4981485;28;20864;-65
2023/12/22 07:12:58;;;;;;;16.52;4.53;;;;;;;;;;4983975;28;20068;-65
2023/12/22 07:15:23;;;;;;;14.13;3.15;;;;;;;;;;4988017;28;20410;-65
2023/12/22 07:17:49;;;;;;;16.50;4.17;;;;;;;;;;4993429;28;20030;-65
2023/12/22 07:20:14;;;;;;;12.20;4.50;;;;;;;;;;4990886;28;20272;-65
2023/12/22 07:22:39;;;;;;;18.90;3.78;;;;;;;;;;4997168;28;20273;-65
2023/12/22 07:25:05;;;;;;;17.70;3.60;;;;;;;;;;4992131;28;20128;-66
2023/12/22 07:27:30;;;;;;;18.55;3.95;;;;;;;;;;5001370;28;20810;-65
2023/12/22 07:29:55;;;;;;;20.40;3.90;;;;;;;;;;4995905;28;20025;-64
2023/12/22 07:32:20;;;;;;;16.20;3.97;;;;;;;;;;5003977;28;20033;-64
2023/12/22 07:34:46;;;;;;;13.48;3.50;;;;;;;;;;4998467;28;20420;-65
2023/12/22 07:37:11;;;;;;;9.53;3.17;;;;;;;;;;4978934;28;20040;-64
2023/12/22 07:39:36;;;;;;;12.10;3.60;;;;;;;;;;4996143;28;20271;-66
2023/12/22 07:42:01;;;;;;;15.00;3.83;;;;;;;;;;4987237;28;20276;-66
2023/12/22 07:44:26;;;;;;;12.20;2.83;;;;;;;;;;4985103;28;20718;-66
2023/12/22 07:46:55;;;;;;;10.65;3.15;;;;;;;;;;4989023;28;20038;-65
2023/12/22 07:49:21;;;;;;;15.75;3.70;;;;;;;;;;4963018;28;20809;-65
2023/12/22 07:51:46;;;;;;;16.60;3.38;;;;;;;;;;4975150;28;20025;-65
2023/12/22 07:54:11;;;;;;;11.40;3.33;;;;;;;;;;4978300;28;20030;-65
2023/12/22 07:56:37;;;;;;;15.00;4.18;;;;;;;;;;4978187;28;20274;-65
2023/12/22 07:59:03;;;;;;;13.38;3.35;;;;;;;;;;4980441;28;20025;-65
2023/12/22 08:01:28;;;;;;;11.73;3.08;;;;;;;;;;4984568;28;20061;-66
2023/12/22 08:03:53;;;;;;;19.50;4.77;;;;;;;;;;4979406;28;20028;-66
2023/12/22 08:06:18;;;;;;;21.38;4.28;;;;;;;;;;4987596;28;20306;-65
2023/12/22 08:08:43;;;;;;;17.30;3.78;;;;;;;;;;4983901;28;20132;-66
2023/12/22 08:11:09;;;;;;;11.50;2.70;;;;;;;;;;4984744;28;20853;-66
2023/12/22 08:13:34;;;;;;;11.90;3.97;;;;;;;;;;4981827;28;20033;-65
2023/12/22 08:15:59;;;;;;;20.48;3.40;;;;;;;;;;4977681;28;20022;-66
2023/12/22 08:18:24;;;;;;;15.43;4.57;;;;;;;;;;4976406;28;20025;-65
2023/12/22 08:20:50;;;;;;;15.50;3.73;;;;;;;;;;4976935;28;20285;-65
2023/12/22 08:23:15;;;;;;;19.20;3.97;;;;;;;;;;4975135;28;20276;-66
2023/12/22 08:25:43;;;;;;;12.82;3.42;;;;;;;;;;4987107;28;20281;-66
2023/12/22 08:28:09;;;;;;;14.88;4.22;;;;;;;;;;4977310;28;20028;-66
2023/12/22 08:30:34;;;;;;;14.05;3.85;;;;;;;;;;4980453;28;20014;-66
2023/12/22 08:32:59;;;;;;;16.45;4.47;;;;;;;;;;4986357;28;20044;-65
2023/12/22 08:35:25;;;;;;;6.33;2.17;;;;;;;;;;4976882;28;20383;-65
2023/12/22 08:37:50;;;;;;;14.68;2.72;;;;;;;;;;4978323;28;20276;-65
2023/12/22 08:40:15;;;;;;;19.87;3.10;;;;;;;;;;4983037;28;20021;-65
2023/12/22 08:42:40;;;;;;;12.65;3.08;;;;;;;;;;4972852;28;20286;-65
2023/12/22 08:45:06;;;;;;;13.07;3.67;;;;;;;;;;4985649;28;20029;-65
2023/12/22 08:47:33;;;;;;;9.32;2.80;;;;;;;;;;4983755;28;20162;-65
2023/12/22 08:49:58;;;;;;;6.90;2.00;;;;;;;;;;4986115;28;20036;-65
2023/12/22 08:52:23;;;;;;;10.73;2.78;;;;;;;;;;4981455;28;20049;-65
2023/12/22 08:54:48;;;;;;;12.25;2.65;;;;;;;;;;4982773;28;20815;-65
2023/12/22 08:57:14;;;;;;;6.78;2.15;;;;;;;;;;4987454;28;20160;-65
2023/12/22 08:59:39;;;;;;;8.30;2.17;;;;;;;;;;4976920;28;20030;-66
2023/12/22 09:02:05;;;;;;;8.25;2.70;;;;;;;;;;4975179;28;20089;-66
2023/12/22 09:04:31;;;;;;;4.70;1.80;;;;;;;;;;4983586;28;20130;-66
2023/12/22 09:06:56;;;;;;;8.95;2.30;;;;;;;;;;4985763;28;20917;-66
2023/12/22 09:09:24;;;;;;;6.65;2.28;;;;;;;;;;5002611;28;20052;-66
2023/12/22 09:11:49;;;;;;;4.65;2.13;;;;;;;;;;5012651;28;20030;-65
2023/12/22 09:14:14;;;;;;;8.27;2.40;;;;;;;;;;5020057;28;20036;-66
2023/12/22 09:16:40;;;;;;;7.72;2.38;;;;;;;;;;4993585;28;20277;-66
2023/12/22 09:19:06;;;;;;;11.60;2.67;;;;;;;;;;4987167;28;20045;-66
2023/12/22 09:21:31;;;;;;;7.15;2.70;;;;;;;;;;4995086;28;20030;-66
2023/12/22 09:23:56;;;;;;;7.47;2.73;;;;;;;;;;4984490;28;20029;-65
2023/12/22 09:26:21;;;;;;;9.67;3.13;;;;;;;;;;4978011;28;20335;-66
2023/12/22 09:28:47;;;;;;;6.63;2.83;;;;;;;;;;4987839;28;20309;-66
2023/12/22 09:31:14;;;;;;;9.38;2.78;;;;;;;;;;4976008;28;20845;-66
2023/12/22 09:33:41;;;;;;;9.88;3.05;;;;;;;;;;4988671;28;20920;-66
2023/12/22 09:36:06;;;;;;;5.35;2.63;;;;;;;;;;4975000;28;20332;-66
2023/12/22 09:38:31;;;;;;;5.53;2.33;;;;;;;;;;4983757;28;20026;-66
2023/12/22 09:40:57;;;;;;;4.00;1.98;;;;;;;;;;4974559;28;20149;-66
2023/12/22 09:43:23;;;;;;;7.90;1.70;;;;;;;;;;4972981;28;20893;-66
2023/12/22 09:45:49;;;;;;;5.43;1.88;;;;;;;;;;4972156;28;20040;-66
2023/12/22 09:48:17;;;;;;;6.15;2.05;;;;;;;;;;4996120;28;20014;-66
2023/12/22 09:50:43;;;;;;;4.45;2.60;;;;;;;;;;5011745;28;20026;-68
2023/12/22 09:53:08;;;;;;;4.82;2.42;;;;;;;;;;5016920;28;20449;-67
2023/12/22 09:55:34;;;;;;;6.90;2.78;;;;;;;;;;5029399;28;20033;-65
2023/12/22 09:58:00;;;;;;;5.50;2.70;;;;;;;;;;5011388;28;20029;-65
2023/12/22 10:00:28;;;;;;;5.38;2.70;;;;;;;;;;5011718;28;20056;-66
2023/12/22 10:02:53;;;;;;;5.60;2.30;;;;;;;;;;5009403;28;20033;-66
2023/12/22 10:05:18;;;;;;;4.93;2.70;;;;;;;;;;4997379;28;20049;-66
2023/12/22 10:07:44;;;;;;;8.13;2.60;;;;;;;;;;4987349;28;20030;-66
2023/12/22 10:10:10;;;;;;;5.85;2.20;;;;;;;;;;4976889;28;20061;-65
2023/12/22 10:12:36;;;;;;;4.82;2.70;;;;;;;;;;4974324;28;20129;-66
2023/12/22 10:15:02;;;;;;;4.68;2.50;;;;;;;;;;4987947;28;20852;-65
2023/12/22 10:17:28;;;;;;;4.28;2.42;;;;;;;;;;4980028;28;20060;-65
2023/12/22 10:19:54;;;;;;;7.70;2.80;;;;;;;;;;4985658;28;20029;-65
2023/12/22 10:22:21;;;;;;;3.67;2.40;;;;;;;;;;4987811;28;20908;-65
2023/12/22 10:24:50;;;;;;;4.32;2.60;;;;;;;;;;4979849;28;20268;-66
2023/12/22 10:27:22;;;;;;;5.13;2.30;;;;;;;;;;4976807;28;20026;-66
2023/12/22 10:29:48;;;;;;;3.60;2.10;;;;;;;;;;4983492;28;20067;-66
2023/12/22 10:32:14;;;;;;;2.70;1.40;;;;;;;;;;4986469;28;21476;-65
2023/12/22 10:34:39;;;;;;;4.23;1.53;;;;;;;;;;4983139;28;20031;-65
2023/12/22 10:37:05;;;;;;;2.67;1.77;;;;;;;;;;4980458;28;20281;-65
2023/12/22 10:39:30;;;;;;;3.60;1.92;;;;;;;;;;4989560;28;20033;-65
2023/12/22 10:41:57;;;;;;;5.43;2.08;;;;;;;;;;4994177;28;20820;-65
2023/12/22 10:44:25;;;;;;;3.47;1.60;;;;;;;;;;4989218;28;20434;-65
2023/12/22 10:46:51;;;;;;;3.22;1.35;;;;;;;;;;4995270;28;20046;-65
2023/12/22 10:49:17;;;;;;;3.95;1.48;;;;;;;;;;5005431;28;20053;-65
2023/12/22 10:51:42;;;;;;;1.93;0.90;;;;;;;;;;4995707;28;20021;-65
2023/12/22 10:54:07;;;;;;;3.08;1.50;;;;;;;;;;4991889;28;20277;-65
2023/12/22 10:56:33;;;;;;;2.90;1.55;;;;;;;;;;4982551;28;20853;-65
2023/12/22 10:58:58;;;;;;;3.83;1.40;;;;;;;;;;4993586;28;20052;-66
2023/12/22 11:01:27;;;;;;;4.97;1.40;;;;;;;;;;4980717;28;20033;-65
2023/12/22 11:03:56;;;;;;;3.40;1.30;;;;;;;;;;5007344;28;20285;-65
2023/12/22 11:06:22;;;;;;;4.68;1.80;;;;;;;;;;4983739;28;20182;-65
2023/12/22 11:08:50;;;;;;;3.13;1.45;;;;;;;;;;4981417;28;20125;-65
2023/12/22 11:11:29;;;;;;;4.20;1.77;;;;;;;;;;4979506;28;20192;-65
2023/12/22 11:13:55;;;;;;;3.08;1.80;;;;;;;;;;4990292;28;20040;-66
2023/12/22 11:16:21;;;;;;;5.28;2.00;;;;;;;;;;4980555;28;20039;-64
2023/12/22 11:18:47;;;;;;;6.53;2.45;;;;;;;;;;4987717;28;20021;-65
2023/12/22 11:21:14;;;;;;;2.80;1.52;;;;;;;;;;4982740;28;20025;-66
2023/12/22 11:23:39;;;;;;;4.15;1.85;;;;;;;;;;4982635;28;20146;-65
2023/12/22 11:26:05;;;;;;;4.97;2.10;;;;;;;;;;4984246;28;20807;-66
2023/12/22 11:28:32;;;;;;;5.28;1.65;;;;;;;;;;4988070;28;20029;-66
2023/12/22 11:30:58;;;;;;;6.55;1.92;;;;;;;;;;4977962;28;20918;-65
2023/12/22 11:33:25;;;;;;;4.90;1.85;;;;;;;;;;4978347;28;20034;-65
2023/12/22 11:35:51;;;;;;;3.10;1.52;;;;;;;;;;4975129;28;20051;-65
2023/12/22 11:38:17;;;;;;;8.30;2.08;;;;;;;;;;4973806;28;20475;-68
2023/12/22 11:40:42;;;;;;;4.57;1.38;;;;;;;;;;4992716;28;20049;-66
2023/12/22 11:43:08;;;;;;;7.28;1.73;;;;;;;;;;4988339;28;20032;-65
2023/12/22 11:45:34;;;;;;;6.10;1.48;;;;;;;;;;4974631;28;20033;-66
2023/12/22 11:48:06;;;;;;;4.75;1.20;;;;;;;;;;4987980;28;20033;-66
2023/12/22 11:50:32;;;;;;;6.95;1.42;;;;;;;;;;4996671;28;20036;-66
2023/12/22 11:53:17;;;;;;;4.25;1.80;;;;;;;;;;5000770;28;20515;-65
2023/12/22 11:55:58;;;;;;;2.40;1.00;;;;;;;;;;4985721;28;20094;-65
2023/12/22 11:58:36;;;;;;;4.00;1.00;;;;;;;;;;4996981;28;20103;-65
2023/12/22 12:01:05;;;;;;;2.45;0.73;;;;;;;;;;4983294;28;20025;-65
2023/12/22 12:03:31;;;;;;;4.60;1.27;;;;;;;;;;4981730;28;20057;-65
2023/12/22 12:06:37;;;;;;;3.58;1.50;;;;;;;;;;4986115;28;20034;-66
2023/12/22 12:09:05;;;;;;;2.55;1.00;;;;;;;;;;4872745;29;20028;-65
2023/12/22 12:11:49;;;;;;;3.92;1.40;;;;;;;;;;4872318;29;20028;-64
2023/12/22 12:14:15;;;;;;;5.40;1.20;;;;;;;;;;4940149;28;20034;-67
2023/12/22 12:16:42;;;;;;;4.65;1.23;;;;;;;;;;4984687;28;20032;-65
2023/12/22 12:19:08;;;;;;;3.22;1.40;;;;;;;;;;4977107;28;20013;-66
2023/12/22 12:21:33;;;;;;;4.90;1.13;;;;;;;;;;4976903;28;20096;-65
2023/12/22 12:23:58;;;;;;;2.33;0.87;;;;;;;;;;4977371;28;20017;-64
2023/12/22 12:26:25;;;;;;;2.45;1.23;;;;;;;;;;4981236;28;20435;-65
2023/12/22 12:28:50;;;;;;;4.88;1.25;;;;;;;;;;4977283;28;20038;-64
2023/12/22 12:31:16;;;;;;;2.30;0.93;;;;;;;;;;4987573;28;20057;-64
2023/12/22 12:33:41;;;;;;;2.65;1.10;;;;;;;;;;5007523;28;20037;-65
2023/12/22 12:36:07;;;;;;;3.20;0.90;;;;;;;;;;5010770;28;20104;-65
2023/12/22 12:38:44;;;;;;;3.53;1.20;;;;;;;;;;5019489;28;20026;-65
2023/12/22 12:41:11;;;;;;;4.60;1.02;;;;;;;;;;4997995;28;20044;-65
2023/12/22 12:43:40;;;;;;;4.68;1.77;;;;;;;;;;5022980;28;20495;-65
2023/12/22 12:46:06;;;;;;;3.92;1.15;;;;;;;;;;5013363;28;20030;-65
2023/12/22 12:48:31;;;;;;;3.80;1.08;;;;;;;;;;5012905;28;20076;-65
2023/12/22 12:51:01;;;;;;;4.05;1.67;;;;;;;;;;5013395;28;20523;-64
2023/12/22 12:53:26;;;;;;;4.28;1.02;;;;;;;;;;5017994;28;20037;-65
2023/12/22 12:55:55;;;;;;;4.15;0.90;;;;;;;;;;5015303;28;20037;-65
2023/12/22 12:58:21;;;;;;;3.85;1.00;;;;;;;;;;5022751;28;20386;-65
2023/12/22 13:00:46;;;;;;;5.18;1.10;;;;;;;;;;5023552;28;20025;-65
2023/12/22 13:03:11;;;;;;;2.65;0.70;;;;;;;;;;5019040;28;20029;-65
2023/12/22 13:05:36;;;;;;;3.93;0.90;;;;;;;;;;5018052;28;20049;-65
2023/12/22 13:08:11;;;;;;;2.30;0.60;;;;;;;;;;5012801;28;20272;-64
2023/12/22 13:10:37;;;;;;;4.05;1.17;;;;;;;;;;5012573;28;20331;-65
2023/12/22 13:13:03;;;;;;;2.65;0.90;;;;;;;;;;5012752;28;20046;-66
2023/12/22 13:15:28;;;;;;;4.35;1.23;;;;;;;;;;5012173;28;20053;-66
2023/12/22 13:17:54;;;;;;;3.90;1.20;;;;;;;;;;5012181;28;20116;-65
2023/12/22 13:20:20;;;;;;;2.47;0.73;;;;;;;;;;5012012;28;20061;-66
2023/12/22 13:22:45;;;;;;;2.78;1.05;;;;;;;;;;4997739;28;20156;-65
2023/12/22 13:25:11;;;;;;;4.03;1.20;;;;;;;;;;4984266;28;20026;-65
2023/12/22 13:27:57;;;;;;;4.47;0.47;;;;;;;;;;4983095;28;20455;-64
2023/12/22 13:30:34;;;;;;;6.45;1.00;;;;;;;;;;4979068;28;20038;-64
2023/12/22 13:32:59;;;;;;;2.28;0.90;;;;;;;;;;4976364;28;20291;-64
2023/12/22 13:35:26;;;;;;;4.10;0.90;;;;;;;;;;4976601;28;20562;-63
2023/12/22 13:37:52;;;;;;;3.83;0.95;;;;;;;;;;4979109;28;20021;-63
2023/12/22 13:40:17;;;;;;;7.00;1.08;;;;;;;;;;4979932;28;20097;-63
2023/12/22 13:42:43;;;;;;;6.22;1.10;;;;;;;;;;4976031;28;20021;-63
2023/12/22 13:45:12;;;;;;;2.95;1.15;;;;;;;;;;4982601;28;20033;-65
2023/12/22 13:47:41;;;;;;;3.10;0.70;;;;;;;;;;4992251;28;20464;-66
2023/12/22 13:50:14;;;;;;;6.47;0.93;;;;;;;;;;4979394;28;20141;-65
2023/12/22 13:52:39;;;;;;;2.65;0.95;;;;;;;;;;4978353;28;20033;-65
2023/12/22 13:55:11;;;;;;;2.63;1.05;;;;;;;;;;4980294;28;20014;-66
2023/12/22 13:57:36;;;;;;;4.13;1.08;;;;;;;;;;4987045;28;20057;-66
2023/12/22 14:00:04;;;;;;;3.73;1.47;;;;;;;;;;4973650;28;20923;-66
2023/12/22 14:02:30;;;;;;;3.58;0.73;;;;;;;;;;4982838;28;20367;-66
2023/12/22 14:04:55;;;;;;;5.20;1.02;;;;;;;;;;4995777;28;20022;-66
2023/12/22 14:07:20;;;;;;;4.57;1.00;;;;;;;;;;4985745;28;20029;-64
2023/12/22 14:09:45;;;;;;;4.50;0.75;;;;;;;;;;4980446;28;20865;-67
2023/12/22 14:12:11;;;;;;;1.65;0.70;;;;;;;;;;4990208;28;20038;-67
2023/12/22 14:14:36;;;;;;;3.47;0.80;;;;;;;;;;4973361;28;20801;-66
2023/12/22 14:17:01;;;;;;;2.95;0.93;;;;;;;;;;4980891;28;20029;-66
2023/12/22 14:19:26;;;;;;;2.45;1.00;;;;;;;;;;4972886;28;20058;-66
2023/12/22 14:21:52;;;;;;;4.77;1.20;;;;;;;;;;4988184;28;20022;-65
2023/12/22 14:24:17;;;;;;;2.90;0.73;;;;;;;;;;4987728;28;20280;-66
2023/12/22 14:26:56;;;;;;;3.10;1.00;;;;;;;;;;4981766;28;20029;-66
2023/12/22 14:29:24;;;;;;;3.92;0.88;;;;;;;;;;4979987;28;20030;-67
2023/12/22 14:31:50;;;;;;;4.20;0.75;;;;;;;;;;4980700;28;20018;-66